Jean Marie River, Canada
Current Conditions -  °F | °C
As of 4:00 AM on Tuesday 21 Oct 2014 (Local Time) from CYFS Reporting Station
Haze Haze  
Wind Chill: 32°   Ceiling: 400
Heat Index: 32°   Visibility: 2mi
Dew Point: 30°   Wind: 3mph
Humidity: 93%   Direction: 250°WSW
Pressure: 29.4"   Gusts: NA
Location:  61.52°N, 120.63°W
Report Text: CYFS 211000Z 25003KT 240V010 2SM BR OVC004 M00/M01 A2940 RMK ST8 SLP966
Loading
Personal Weather Stations






























Interactive Weather Map
Tropical Storm Tracking
New forecast layout! Learn more

10-Day Weather Forecast

Advertisements
Track Severe Weather on mobile